createdAt,value
2022-10-18T00:01:05.668Z,101983.12
2022-10-18T00:03:33.809Z,101981.40
2022-10-18T00:06:01.485Z,101981.78
2022-10-18T00:08:28.950Z,101983.01
2022-10-18T00:10:55.688Z,101978.96
2022-10-18T00:13:23.368Z,101984.27
2022-10-18T00:15:53.285Z,101990.13
2022-10-18T00:18:21.013Z,101989.16
2022-10-18T00:21:07.636Z,101984.39
2022-10-18T00:23:35.556Z,101987.78
2022-10-18T00:26:32.119Z,101991.34
2022-10-18T00:29:02.544Z,101992.77
2022-10-18T00:31:34.226Z,101993.67
2022-10-18T00:34:06.729Z,101993.49
2022-10-18T00:36:36.102Z,101995.25
2022-10-18T00:39:06.169Z,101995.60
2022-10-18T00:41:36.125Z,102000.21
2022-10-18T00:44:11.921Z,101998.58
2022-10-18T00:46:42.486Z,101999.79
2022-10-18T00:49:31.430Z,102001.32
2022-10-18T00:52:08.156Z,101997.45
2022-10-18T00:54:38.388Z,101998.17
2022-10-18T00:57:06.400Z,101996.20
2022-10-18T00:59:35.156Z,101994.27
2022-10-18T01:02:02.551Z,101994.44
2022-10-18T01:04:29.363Z,101994.77
2022-10-18T01:07:16.946Z,102001.09
2022-10-18T01:10:25.542Z,102001.08
2022-10-18T01:13:53.259Z,102006.11
2022-10-18T01:17:01.948Z,102015.83
2022-10-18T01:19:58.295Z,102011.48
2022-10-18T01:22:36.615Z,102013.11
2022-10-18T01:25:36.442Z,102008.05
2022-10-18T01:28:53.334Z,102007.22
2022-10-18T01:31:40.126Z,102001.09
2022-10-18T01:34:11.895Z,102002.17
2022-10-18T01:36:44.094Z,101992.95
2022-10-18T01:39:27.014Z,101991.33
2022-10-18T01:41:57.713Z,101985.03
2022-10-18T01:44:29.346Z,101990.33
2022-10-18T01:46:58.206Z,101989.98
2022-10-18T01:49:26.768Z,101991.30
2022-10-18T01:51:55.064Z,101995.60
2022-10-18T01:54:38.100Z,102003.61
2022-10-18T01:57:39.571Z,102003.56
2022-10-18T02:00:19.070Z,102006.40
2022-10-18T02:02:55.171Z,102000.05
2022-10-18T02:05:33.403Z,101997.80
2022-10-18T02:08:24.146Z,101995.27
2022-10-18T02:10:56.706Z,101994.73
2022-10-18T02:13:30.487Z,101996.06
2022-10-18T02:16:07.704Z,101994.23
2022-10-18T02:18:41.623Z,102000.91
2022-10-18T02:21:18.146Z,101998.91
2022-10-18T02:23:47.015Z,101998.77
2022-10-18T02:26:15.870Z,101999.30
2022-10-18T02:28:43.302Z,102000.36
2022-10-18T02:31:18.190Z,102007.41
2022-10-18T02:34:02.705Z,102009.16
2022-10-18T02:36:42.900Z,102003.41
2022-10-18T02:39:17.862Z,102001.55
2022-10-18T02:41:45.659Z,102012.00
2022-10-18T02:44:15.258Z,102018.41
2022-10-18T02:46:42.518Z,102015.17
2022-10-18T02:49:09.179Z,102020.82
2022-10-18T02:51:35.847Z,102022.70
2022-10-18T02:54:02.558Z,102024.31
2022-10-18T02:56:29.205Z,102033.63
2022-10-18T02:58:56.241Z,102030.86
2022-10-18T03:01:22.901Z,102026.35
2022-10-18T03:03:50.043Z,102022.52
2022-10-18T03:06:16.857Z,102025.73
2022-10-18T03:08:43.486Z,102031.48
2022-10-18T03:11:12.593Z,102031.00
2022-10-18T03:13:39.238Z,102034.19
2022-10-18T03:16:06.040Z,102033.57
2022-10-18T03:18:32.660Z,102038.81
2022-10-18T03:20:59.324Z,102036.50
2022-10-18T03:23:26.314Z,102034.57
2022-10-18T03:25:52.947Z,102032.13
2022-10-18T03:28:19.526Z,102029.85
2022-10-18T03:30:46.129Z,102031.77
2022-10-18T03:33:12.993Z,102037.75
2022-10-18T03:35:39.970Z,102037.06
2022-10-18T03:38:06.972Z,102036.13
2022-10-18T03:40:33.848Z,102031.16
2022-10-18T03:43:00.671Z,102030.61
2022-10-18T03:45:30.493Z,102034.29
2022-10-18T03:47:58.130Z,102035.13
2022-10-18T03:50:24.766Z,102035.26
2022-10-18T03:52:51.400Z,102036.77
2022-10-18T03:55:18.049Z,102041.72
2022-10-18T03:57:44.644Z,102042.40
2022-10-18T04:00:12.722Z,102040.65
2022-10-18T04:02:40.044Z,102034.81
2022-10-18T04:05:07.575Z,102035.35
2022-10-18T04:10:07.923Z,102043.91
2022-10-18T04:12:36.654Z,102044.47
2022-10-18T04:15:03.913Z,102044.30
2022-10-18T04:17:30.740Z,102042.45
2022-10-18T04:19:57.546Z,102042.36
2022-10-18T04:22:24.341Z,102049.58
2022-10-18T04:24:53.086Z,102052.60
2022-10-18T04:27:19.726Z,102052.26
2022-10-18T04:29:46.321Z,102043.67
2022-10-18T04:32:12.930Z,102038.40
2022-10-18T04:34:39.574Z,102035.89
2022-10-18T04:37:06.230Z,102036.95
2022-10-18T04:39:32.837Z,102040.52
2022-10-18T04:41:59.440Z,102044.70
2022-10-18T04:44:26.020Z,102039.88
2022-10-18T04:46:52.660Z,102031.80
2022-10-18T04:49:19.347Z,102034.95
2022-10-18T04:51:45.988Z,102035.33
2022-10-18T04:54:12.653Z,102033.16
2022-10-18T04:56:39.255Z,102032.75
2022-10-18T04:59:05.890Z,102038.23
2022-10-18T05:01:32.547Z,102044.23
2022-10-18T05:03:59.211Z,102041.23
2022-10-18T05:06:25.951Z,102043.92
2022-10-18T05:08:52.617Z,102037.70
2022-10-18T05:11:19.255Z,102029.66
2022-10-18T05:13:48.543Z,102026.92
2022-10-18T05:16:17.708Z,102021.73
2022-10-18T05:18:44.376Z,102011.42
2022-10-18T05:21:12.355Z,102018.50
2022-10-18T05:23:39.705Z,102019.60
2022-10-18T05:26:07.753Z,102026.67
2022-10-18T05:28:40.061Z,102025.88
2022-10-18T05:31:09.978Z,102027.41
2022-10-18T05:33:36.727Z,102021.75
2022-10-18T05:36:04.507Z,102019.48
2022-10-18T05:38:31.494Z,102016.10
2022-10-18T05:40:59.465Z,102020.74
2022-10-18T05:43:29.291Z,102024.02
2022-10-18T05:45:56.182Z,102031.61
2022-10-18T05:48:22.905Z,102034.09
2022-10-18T05:50:49.528Z,102039.18
2022-10-18T05:53:35.645Z,102042.25
2022-10-18T05:56:03.947Z,102042.55
2022-10-18T05:58:30.615Z,102048.36
2022-10-18T06:01:06.064Z,102049.40
2022-10-18T06:03:33.508Z,102047.08
2022-10-18T06:06:01.576Z,102041.23
2022-10-18T06:08:28.477Z,102036.82
2022-10-18T06:10:55.431Z,102031.70
2022-10-18T06:13:22.497Z,102029.95
2022-10-18T06:15:49.469Z,102027.27
2022-10-18T06:18:16.454Z,102021.54
2022-10-18T06:20:43.069Z,102017.46
2022-10-18T06:23:09.751Z,102011.31
2022-10-18T06:25:36.378Z,102013.10
2022-10-18T06:28:07.813Z,102016.67
2022-10-18T06:30:37.027Z,102021.61
2022-10-18T06:33:03.701Z,102022.33
2022-10-18T06:35:30.302Z,102017.38
2022-10-18T06:37:57.567Z,102020.77
2022-10-18T06:40:24.397Z,102017.39
2022-10-18T06:43:00.316Z,102020.23
2022-10-18T06:45:33.475Z,102023.41
2022-10-18T06:48:00.160Z,102021.45
2022-10-18T06:50:26.802Z,102019.70
2022-10-18T06:52:53.515Z,102025.12
2022-10-18T06:55:20.186Z,102026.45
2022-10-18T06:57:47.156Z,102014.85
2022-10-18T07:00:14.679Z,102016.25
2022-10-18T07:02:41.373Z,102025.34
2022-10-18T07:05:09.368Z,102037.11
2022-10-18T07:07:36.208Z,102038.01
2022-10-18T07:10:04.330Z,102036.51
2022-10-18T07:12:32.311Z,102036.42
2022-10-18T07:14:59.153Z,102041.05
2022-10-18T07:17:27.288Z,102049.20
2022-10-18T07:19:53.947Z,102055.89
2022-10-18T07:22:20.607Z,102060.95
2022-10-18T07:24:47.205Z,102056.94
2022-10-18T07:27:13.811Z,102059.30
2022-10-18T07:29:40.981Z,102066.07
2022-10-18T07:32:07.611Z,102068.95
2022-10-18T07:34:34.412Z,102076.36
2022-10-18T07:37:02.393Z,102082.32
2022-10-18T07:39:28.998Z,102089.45
2022-10-18T07:41:55.637Z,102091.98
2022-10-18T07:44:22.306Z,102093.36
2022-10-18T07:46:48.962Z,102089.82
2022-10-18T07:49:15.558Z,102090.74
2022-10-18T07:51:42.737Z,102089.96
2022-10-18T07:54:09.699Z,102091.97
2022-10-18T07:56:36.296Z,102085.65
2022-10-18T07:59:02.996Z,102083.09
2022-10-18T08:01:29.743Z,102076.92
2022-10-18T08:03:56.375Z,102074.54
2022-10-18T08:06:23.792Z,102076.71
2022-10-18T08:08:52.159Z,102075.86
2022-10-18T08:11:25.341Z,102076.55
2022-10-18T08:13:54.000Z,102082.88
2022-10-18T08:16:25.137Z,102084.14
2022-10-18T08:18:52.250Z,102076.46
2022-10-18T08:21:21.252Z,102075.64
2022-10-18T08:23:49.146Z,102077.48
2022-10-18T08:26:20.305Z,102078.02
2022-10-18T08:28:53.922Z,102077.30
2022-10-18T08:31:25.780Z,102079.15
2022-10-18T08:33:54.457Z,102077.73
2022-10-18T08:36:21.190Z,102076.47
2022-10-18T08:38:49.361Z,102078.48
2022-10-18T08:41:37.016Z,102080.45
2022-10-18T08:44:29.072Z,102079.52
2022-10-18T08:47:04.404Z,102076.13
2022-10-18T08:49:46.336Z,102080.57
2022-10-18T08:53:00.078Z,102082.35
2022-10-18T08:55:37.314Z,102080.80
2022-10-18T08:58:19.292Z,102079.33
2022-10-18T09:01:10.322Z,102077.30
2022-10-18T09:04:51.467Z,102081.13
2022-10-18T09:08:02.870Z,102074.73
2022-10-18T09:10:50.175Z,102075.52
2022-10-18T09:14:07.127Z,102081.31
2022-10-18T09:16:49.079Z,102076.86
2022-10-18T09:19:55.037Z,102074.20
2022-10-18T09:22:55.558Z,102069.40
2022-10-18T09:25:25.963Z,102067.71
2022-10-18T09:28:20.039Z,102067.82
2022-10-18T09:30:59.637Z,102068.41
2022-10-18T09:34:03.831Z,102070.23
2022-10-18T09:36:37.035Z,102070.95
2022-10-18T09:39:14.529Z,102073.83
2022-10-18T09:41:50.947Z,102072.17
2022-10-18T09:44:55.831Z,102068.92
2022-10-18T09:47:32.627Z,102067.94
2022-10-18T09:50:24.083Z,102069.17
2022-10-18T09:53:21.419Z,102073.63
2022-10-18T09:56:06.487Z,102073.64
2022-10-18T09:58:48.811Z,102077.18
2022-10-18T10:01:25.478Z,102079.99
2022-10-18T10:03:53.304Z,102079.97
2022-10-18T10:06:32.370Z,102076.88
2022-10-18T10:09:14.884Z,102076.44
2022-10-18T10:11:48.365Z,102076.26
2022-10-18T10:14:27.952Z,102075.82
2022-10-18T10:17:02.427Z,102082.91
2022-10-18T10:19:35.418Z,102083.79
2022-10-18T10:22:14.431Z,102083.05
2022-10-18T10:24:54.422Z,102080.96
2022-10-18T10:27:45.400Z,102077.45
2022-10-18T10:30:28.653Z,102076.98
2022-10-18T10:32:56.852Z,102073.59
2022-10-18T10:35:53.052Z,102068.81
2022-10-18T10:38:30.102Z,102072.55
2022-10-18T10:40:58.304Z,102066.58
2022-10-18T10:43:39.404Z,102061.14
2022-10-18T10:46:12.915Z,102059.05
2022-10-18T10:48:42.106Z,102056.05
2022-10-18T10:51:11.594Z,102054.20
2022-10-18T10:53:59.881Z,102051.55
2022-10-18T10:56:37.518Z,102049.20
2022-10-18T10:59:17.502Z,102046.83
2022-10-18T11:01:45.371Z,102037.71
2022-10-18T11:04:30.958Z,102032.74
2022-10-18T11:07:09.768Z,102025.21
2022-10-18T11:09:44.121Z,102020.95
2022-10-18T11:12:24.188Z,102015.00
2022-10-18T11:15:35.974Z,102015.63
2022-10-18T11:18:28.161Z,102020.91
2022-10-18T11:21:21.568Z,102018.27
2022-10-18T11:23:48.364Z,102019.52
2022-10-18T11:26:36.044Z,102017.80
2022-10-18T11:29:54.372Z,102021.86
2022-10-18T11:32:43.538Z,102025.30
2022-10-18T11:35:43.332Z,102030.08
2022-10-18T11:38:28.507Z,102032.17
2022-10-18T11:41:28.204Z,102029.80
2022-10-18T11:44:03.499Z,102028.57
2022-10-18T11:46:48.682Z,102018.89
2022-10-18T11:49:48.616Z,102004.19
2022-10-18T11:52:46.007Z,102013.21
2022-10-18T11:55:49.809Z,102015.25
2022-10-18T11:58:43.526Z,102016.77
2022-10-18T12:01:28.631Z,102015.72
2022-10-18T12:04:10.431Z,102008.52
2022-10-18T12:06:41.615Z,102005.48
2022-10-18T12:09:26.349Z,102003.31
2022-10-18T12:12:11.271Z,102007.31
2022-10-18T12:14:49.451Z,102007.39
2022-10-18T12:17:46.344Z,102010.09
2022-10-18T12:20:27.726Z,102009.98
2022-10-18T12:23:17.533Z,102012.66
2022-10-18T12:25:51.309Z,101997.55
2022-10-18T12:28:32.979Z,101993.36
2022-10-18T12:31:33.800Z,101997.83
2022-10-18T12:34:23.390Z,102001.69
2022-10-18T12:37:21.670Z,101996.92
2022-10-18T12:40:09.742Z,101993.92
2022-10-18T12:42:47.706Z,101992.86
2022-10-18T12:45:32.206Z,101992.12
2022-10-18T12:48:06.800Z,101991.23
2022-10-18T12:50:43.410Z,101987.27
2022-10-18T12:53:09.936Z,101981.77
2022-10-18T12:55:40.654Z,101981.48
2022-10-18T12:58:30.339Z,101981.02
2022-10-18T13:01:05.060Z,101983.34
2022-10-18T13:03:54.983Z,101983.75
2022-10-18T13:06:23.564Z,101983.55
2022-10-18T13:09:17.972Z,101986.71
2022-10-18T13:11:45.031Z,101988.95
2022-10-18T13:14:48.283Z,101987.16
2022-10-18T13:17:57.256Z,101980.97
2022-10-18T13:20:52.537Z,101983.98
2022-10-18T13:23:59.793Z,101980.13
2022-10-18T13:27:18.059Z,101985.63
2022-10-18T13:30:15.779Z,101987.96
2022-10-18T13:33:27.898Z,101991.69
2022-10-18T13:35:59.672Z,101984.66
2022-10-18T13:38:47.215Z,101988.28
2022-10-18T13:41:20.666Z,101988.89
2022-10-18T13:43:53.263Z,101989.71
2022-10-18T13:46:25.372Z,101992.40
2022-10-18T13:49:37.605Z,101990.79
2022-10-18T13:52:33.389Z,101988.43
2022-10-18T13:55:37.830Z,101984.30
2022-10-18T13:58:34.323Z,101984.52
2022-10-18T14:01:19.108Z,101986.29
2022-10-18T14:04:48.760Z,101991.45
2022-10-18T14:07:18.719Z,101990.27
2022-10-18T14:09:56.078Z,101994.52
2022-10-18T14:12:45.939Z,101995.08
2022-10-18T14:15:27.298Z,101993.52
2022-10-18T14:18:21.967Z,101990.85
2022-10-18T14:21:12.790Z,101997.92
2022-10-18T14:23:45.059Z,102002.66
2022-10-18T14:26:20.845Z,102002.69
2022-10-18T14:29:04.921Z,102008.88
2022-10-18T14:31:32.710Z,102011.91
2022-10-18T14:34:00.908Z,102016.44
2022-10-18T14:36:39.530Z,102020.71
2022-10-18T14:43:31.485Z,102020.30
2022-10-18T14:46:29.038Z,102020.81
2022-10-18T14:49:21.370Z,102026.81
2022-10-18T14:52:17.204Z,102024.52
2022-10-18T14:55:06.726Z,102024.57
2022-10-18T14:57:55.247Z,102028.77
2022-10-18T15:01:03.159Z,102025.41
2022-10-18T15:04:01.182Z,102027.23
2022-10-18T15:06:50.086Z,102022.41
2022-10-18T15:09:38.433Z,102026.02
2022-10-18T15:26:06.978Z,102018.00
2022-10-18T15:29:00.493Z,102024.95
2022-10-18T15:31:52.663Z,102028.95
2022-10-18T15:34:41.125Z,102028.21
2022-10-18T15:37:38.523Z,102027.27
2022-10-18T15:40:35.807Z,102028.45
2022-10-18T15:43:24.190Z,102028.84
2022-10-18T15:46:31.569Z,102026.63
2022-10-18T15:49:47.489Z,102020.48
2022-10-18T15:52:42.243Z,102022.48
2022-10-18T15:55:29.760Z,102024.96
2022-10-18T15:58:46.802Z,102029.77
2022-10-18T16:01:34.958Z,102029.30
2022-10-18T16:04:31.776Z,102030.27
2022-10-18T16:07:17.076Z,102039.02
2022-10-18T16:10:14.280Z,102039.10
2022-10-18T16:13:01.971Z,102035.66
2022-10-18T16:15:50.975Z,102033.69
2022-10-18T16:18:39.363Z,102035.05
2022-10-18T16:21:36.597Z,102029.75
2022-10-18T16:24:24.947Z,102026.63
2022-10-18T16:27:13.114Z,102034.97
2022-10-18T16:30:01.419Z,102043.58
2022-10-18T16:32:49.658Z,102045.67
2022-10-18T16:35:38.030Z,102043.21
2022-10-18T16:38:37.306Z,102048.79
2022-10-18T16:41:25.553Z,102051.66
2022-10-18T16:44:15.324Z,102057.45
2022-10-18T16:47:03.703Z,102061.31
2022-10-18T16:49:51.877Z,102065.37
2022-10-18T16:52:40.031Z,102072.42
2022-10-18T16:55:28.209Z,102072.54
2022-10-18T16:58:18.039Z,102071.11
2022-10-18T17:01:08.879Z,102069.64
2022-10-18T17:03:57.417Z,102065.83
2022-10-18T17:06:47.486Z,102063.91
2022-10-18T17:09:36.967Z,102069.80
2022-10-18T17:12:25.479Z,102071.57
2022-10-18T17:15:13.705Z,102078.41
2022-10-18T17:18:03.835Z,102072.65
2022-10-18T17:20:51.438Z,102071.38
2022-10-18T17:23:39.878Z,102075.09
2022-10-18T17:26:30.185Z,102076.92
2022-10-18T17:29:18.060Z,102074.61
2022-10-18T17:32:07.667Z,102077.85
2022-10-18T17:34:55.370Z,102082.08
2022-10-18T17:37:49.158Z,102087.21
2022-10-18T17:40:42.672Z,102085.04
2022-10-18T17:43:30.542Z,102080.61
2022-10-18T17:46:19.562Z,102073.91
2022-10-18T17:49:08.073Z,102074.45
2022-10-18T17:51:56.253Z,102080.05
2022-10-18T17:54:44.491Z,102084.70
2022-10-18T17:57:33.055Z,102084.87
2022-10-18T18:00:24.473Z,102088.73
2022-10-18T18:03:13.668Z,102091.67
2022-10-18T18:06:22.539Z,102090.13
2022-10-18T18:09:14.518Z,102088.58
2022-10-18T18:12:02.578Z,102089.55
2022-10-18T18:14:51.037Z,102087.92
2022-10-18T18:17:56.092Z,102092.16
2022-10-18T18:20:54.599Z,102092.09
2022-10-18T18:23:44.445Z,102095.30
2022-10-18T18:26:34.592Z,102094.05
2022-10-18T18:29:25.466Z,102098.44
2022-10-18T18:32:13.386Z,102102.66
2022-10-18T18:35:02.263Z,102102.46
2022-10-18T18:37:51.269Z,102104.74
2022-10-18T18:40:38.937Z,102105.13
2022-10-18T18:43:27.359Z,102104.84
2022-10-18T18:46:15.669Z,102104.81
2022-10-18T18:49:06.868Z,102111.83
2022-10-18T18:51:54.758Z,102108.52
2022-10-18T18:54:42.949Z,102108.38
2022-10-18T18:57:31.403Z,102105.41
2022-10-18T19:00:20.060Z,102104.18
2022-10-18T19:03:09.649Z,102107.48
2022-10-18T19:06:11.065Z,102107.91
2022-10-18T19:09:02.983Z,102108.06
2022-10-18T19:11:53.740Z,102103.58
2022-10-18T19:14:42.169Z,102105.10
2022-10-18T19:17:30.587Z,102110.50
2022-10-18T19:20:19.224Z,102110.65
2022-10-18T19:23:07.574Z,102109.98
2022-10-18T19:26:12.467Z,102108.65
2022-10-18T19:29:11.351Z,102114.09
2022-10-18T19:32:03.490Z,102117.73
2022-10-18T19:34:52.895Z,102116.77
2022-10-18T19:37:41.083Z,102119.06
2022-10-18T19:40:29.231Z,102117.39
2022-10-18T19:43:17.407Z,102121.44
2022-10-18T19:46:06.002Z,102121.65
2022-10-18T19:48:54.459Z,102124.88
2022-10-18T19:51:43.472Z,102127.24
2022-10-18T19:54:32.202Z,102130.79
2022-10-18T19:57:20.417Z,102130.36
2022-10-18T20:00:10.830Z,102133.48
2022-10-18T20:02:59.784Z,102134.89
2022-10-18T20:05:56.470Z,102145.69
2022-10-18T20:08:44.590Z,102152.38
2022-10-18T20:11:33.696Z,102156.88
2022-10-18T20:14:22.000Z,102164.34
2022-10-18T20:17:12.907Z,102160.23
2022-10-18T20:20:01.061Z,102157.56
2022-10-18T20:22:49.689Z,102159.55
2022-10-18T20:25:38.112Z,102162.71
2022-10-18T20:28:27.023Z,102164.77
2022-10-18T20:31:19.723Z,102170.03
2022-10-18T20:34:11.883Z,102175.53
2022-10-18T20:37:00.177Z,102175.23
2022-10-18T20:39:48.762Z,102171.61
2022-10-18T20:42:36.516Z,102173.47
2022-10-18T20:45:24.852Z,102177.45
2022-10-18T20:48:13.181Z,102176.17
2022-10-18T20:51:09.384Z,102179.05
2022-10-18T20:53:57.167Z,102183.46
2022-10-18T20:56:45.571Z,102182.60
2022-10-18T20:59:33.697Z,102178.59
2022-10-18T21:02:21.988Z,102178.33
2022-10-18T21:05:10.312Z,102180.77
2022-10-18T21:07:59.523Z,102177.98
2022-10-18T21:10:47.760Z,102175.27
2022-10-18T21:13:36.586Z,102176.97
2022-10-18T21:16:26.079Z,102170.79
2022-10-18T21:19:21.678Z,102161.45
2022-10-18T21:22:09.872Z,102167.02
2022-10-18T21:24:58.102Z,102163.66
2022-10-18T21:27:46.309Z,102170.78
2022-10-18T21:30:34.592Z,102170.13
2022-10-18T21:33:22.858Z,102174.67
2022-10-18T21:36:12.815Z,102169.98
2022-10-18T21:39:02.793Z,102169.08
2022-10-18T21:41:51.903Z,102167.31
2022-10-18T21:44:40.152Z,102161.23
2022-10-18T21:47:28.409Z,102159.74
2022-10-18T21:50:16.693Z,102157.85
2022-10-18T21:53:05.028Z,102154.03
2022-10-18T21:55:53.343Z,102154.79
2022-10-18T21:58:45.632Z,102157.70
2022-10-18T22:01:38.207Z,102159.94
2022-10-18T22:04:25.878Z,102163.65
2022-10-18T22:07:14.248Z,102165.30
2022-10-18T22:10:02.502Z,102164.43
2022-10-18T22:12:50.718Z,102171.27
2022-10-18T22:15:38.961Z,102168.82
2022-10-18T22:18:27.238Z,102167.30
2022-10-18T22:21:18.784Z,102163.92
2022-10-18T22:24:10.034Z,102159.35
2022-10-18T22:26:58.281Z,102156.13
2022-10-18T22:31:21.391Z,102155.13
2022-10-18T22:34:18.685Z,102151.92
2022-10-18T22:37:06.899Z,102147.60
2022-10-18T22:39:55.125Z,102144.40
2022-10-18T22:42:43.362Z,102140.77
2022-10-18T22:45:31.708Z,102141.70
2022-10-18T22:48:20.057Z,102142.35
2022-10-18T22:51:09.425Z,102138.85
2022-10-18T22:53:57.901Z,102141.29
2022-10-18T22:56:46.295Z,102138.99
2022-10-18T22:59:34.583Z,102137.05
2022-10-18T23:02:22.905Z,102134.31
2022-10-18T23:05:11.124Z,102131.81
2022-10-18T23:07:59.506Z,102129.08
2022-10-18T23:10:48.155Z,102124.64
2022-10-18T23:13:38.829Z,102122.95
2022-10-18T23:16:29.487Z,102130.38
2022-10-18T23:19:17.403Z,102125.17
2022-10-18T23:22:05.750Z,102123.48
2022-10-18T23:24:54.051Z,102130.38
2022-10-18T23:30:32.462Z,102128.64
2022-10-18T23:33:21.219Z,102126.92
2022-10-18T23:36:09.657Z,102130.36
2022-10-18T23:38:58.551Z,102132.33
2022-10-18T23:41:46.697Z,102132.05
2022-10-18T23:44:34.789Z,102135.77
2022-10-18T23:47:23.084Z,102131.42
2022-10-18T23:50:11.256Z,102122.52
2022-10-18T23:52:59.579Z,102127.71
2022-10-18T23:56:11.669Z,102123.52
2022-10-18T23:58:59.369Z,102125.52
